createdAt,value
2019-05-25T00:03:28.658Z,98175.12
2019-05-25T00:08:35.216Z,98176.14
2019-05-25T00:13:41.873Z,98170.44
2019-05-25T00:18:48.490Z,98168.92
2019-05-25T00:24:10.903Z,98166.79
2019-05-25T00:29:03.495Z,98163.30
2019-05-25T00:34:10.043Z,98161.25
2019-05-25T00:39:16.667Z,98162.89
2019-05-25T00:44:23.284Z,98162.58
2019-05-25T00:49:29.733Z,98161.56
2019-05-25T00:54:36.362Z,98164.73
2019-05-25T00:59:44.054Z,98167.41
2019-05-25T01:04:50.604Z,98163.13
2019-05-25T01:09:57.262Z,98186.56
2019-05-25T01:15:05.119Z,98202.53
2019-05-25T01:20:13.399Z,98193.75
2019-05-25T01:25:20.097Z,98193.84
2019-05-25T01:30:27.147Z,98174.05
2019-05-25T01:35:33.711Z,98189.19
2019-05-25T01:40:40.342Z,98182.95
2019-05-25T01:45:46.734Z,98178.36
2019-05-25T01:50:53.250Z,98178.73
2019-05-25T01:55:59.781Z,98183.09
2019-05-25T02:01:06.738Z,98188.08
2019-05-25T02:06:13.287Z,98183.12
2019-05-25T02:11:21.127Z,98181.55
2019-05-25T02:16:27.683Z,98184.12
2019-05-25T02:21:34.234Z,98181.28
2019-05-25T02:26:40.939Z,98177.38
2019-05-25T02:31:47.540Z,98180.08
2019-05-25T02:36:54.136Z,98188.45
2019-05-25T02:42:00.758Z,98182.95
2019-05-25T02:47:07.316Z,98180.45
2019-05-25T02:52:14.836Z,98187.78
2019-05-25T02:57:21.375Z,98190.87
2019-05-25T03:02:27.984Z,98191.08
2019-05-25T03:07:35.935Z,98187.97
2019-05-25T03:12:43.585Z,98199.81
2019-05-25T03:17:50.118Z,98197.09
2019-05-25T03:22:56.774Z,98203.91
2019-05-25T03:28:03.390Z,98204.05
2019-05-25T03:33:10.009Z,98203.80
2019-05-25T03:38:16.807Z,98207.86
2019-05-25T03:43:23.428Z,98219.02
2019-05-25T03:48:30.041Z,98217.16
2019-05-25T03:53:36.602Z,98223.58
2019-05-25T03:58:43.055Z,98221.65
2019-05-25T04:03:49.715Z,98215.92
2019-05-25T04:08:56.178Z,98210.95
2019-05-25T04:14:02.802Z,98218.73
2019-05-25T04:19:09.408Z,98214.12
2019-05-25T04:24:18.377Z,98214.73
2019-05-25T04:29:25.095Z,98226.03
2019-05-25T04:34:31.658Z,98237.53
2019-05-25T04:39:38.252Z,98244.00
2019-05-25T04:44:44.793Z,98258.84
2019-05-25T04:49:51.513Z,98259.67
2019-05-25T04:54:57.976Z,98253.91
2019-05-25T05:00:05.334Z,98254.59
2019-05-25T05:05:12.950Z,98267.12
2019-05-25T05:10:19.786Z,98269.70
2019-05-25T05:15:27.423Z,98268.22
2019-05-25T05:20:33.965Z,98277.03
2019-05-25T05:25:42.821Z,98275.94
2019-05-25T05:30:49.554Z,98271.29
2019-05-25T05:35:57.198Z,98283.73
2019-05-25T05:41:04.712Z,98290.02
2019-05-25T05:46:16.333Z,98296.04
2019-05-25T05:51:23.004Z,98300.79
2019-05-25T05:56:29.647Z,98304.36
2019-05-25T06:01:36.287Z,98304.38
2019-05-25T06:06:42.888Z,98310.14
2019-05-25T06:11:49.459Z,98310.21
2019-05-25T06:16:56.109Z,98319.82
2019-05-25T06:22:03.648Z,98314.70
2019-05-25T06:27:10.313Z,98324.09
2019-05-25T06:32:16.973Z,98318.86
2019-05-25T06:37:23.649Z,98320.20
2019-05-25T06:42:30.216Z,98313.86
2019-05-25T06:47:36.892Z,98323.25
2019-05-25T06:52:43.470Z,98315.30
2019-05-25T06:57:50.616Z,98332.38
2019-05-25T07:02:57.427Z,98333.32
2019-05-25T07:08:04.054Z,98340.16
2019-05-25T07:13:12.024Z,98335.92
2019-05-25T07:18:21.418Z,98343.06
2019-05-25T07:23:29.441Z,98341.66
2019-05-25T07:28:36.134Z,98341.13
2019-05-25T07:33:42.734Z,98355.67
2019-05-25T07:38:50.473Z,98352.14
2019-05-25T07:43:57.026Z,98360.29
2019-05-25T07:49:03.759Z,98351.50
2019-05-25T07:54:10.724Z,98357.63
2019-05-25T07:59:17.575Z,98361.40
2019-05-25T08:04:24.124Z,98362.41
2019-05-25T08:09:30.799Z,98372.05
2019-05-25T08:14:38.571Z,98371.45
2019-05-25T08:19:45.156Z,98372.14
2019-05-25T08:24:51.803Z,98372.21
2019-05-25T08:29:58.413Z,98370.16
2019-05-25T08:35:05.809Z,98371.51
2019-05-25T08:40:12.556Z,98369.97
2019-05-25T08:45:19.341Z,98363.88
2019-05-25T08:50:37.660Z,98358.47
2019-05-25T08:55:34.293Z,98362.37
2019-05-25T09:00:40.854Z,98366.14
2019-05-25T09:05:47.462Z,98374.27
2019-05-25T09:10:53.962Z,98378.36
2019-05-25T09:16:00.621Z,98372.48
2019-05-25T09:21:07.265Z,98366.05
2019-05-25T09:26:13.831Z,98370.17
2019-05-25T09:31:20.377Z,98373.25
2019-05-25T09:36:26.959Z,98380.09
2019-05-25T09:41:33.475Z,98390.64
2019-05-25T09:46:40.166Z,98381.91
2019-05-25T09:51:48.647Z,98385.52
2019-05-25T09:56:54.968Z,98386.44
2019-05-25T10:02:01.734Z,98382.80
2019-05-25T10:07:08.378Z,98384.52
2019-05-25T10:12:16.299Z,98386.81
2019-05-25T10:17:24.038Z,98381.73
2019-05-25T10:22:30.771Z,98387.91
2019-05-25T10:27:37.487Z,98371.17
2019-05-25T10:32:44.021Z,98374.47
2019-05-25T10:37:50.597Z,98374.44
2019-05-25T10:42:57.235Z,98373.95
2019-05-25T10:48:03.880Z,98372.05
2019-05-25T10:53:10.446Z,98370.69
2019-05-25T10:58:17.098Z,98364.38
2019-05-25T11:03:24.798Z,98358.45
2019-05-25T11:08:31.476Z,98358.74
2019-05-25T11:13:37.970Z,98358.18
2019-05-25T11:18:44.620Z,98354.91
2019-05-25T11:23:51.183Z,98351.94
2019-05-25T11:28:57.744Z,98350.62
2019-05-25T11:34:04.392Z,98350.88
2019-05-25T11:39:11.087Z,98341.09
2019-05-25T11:44:17.704Z,98333.06
2019-05-25T11:49:24.181Z,98335.31
2019-05-25T11:54:30.635Z,98340.37
2019-05-25T11:59:37.255Z,98340.45
2019-05-25T12:04:43.864Z,98343.03
2019-05-25T12:09:51.408Z,98338.09
2019-05-25T12:14:57.892Z,98336.25
2019-05-25T12:20:05.663Z,98337.17
2019-05-25T12:25:12.465Z,98333.39
2019-05-25T12:30:19.603Z,98329.70
2019-05-25T12:35:26.231Z,98328.58
2019-05-25T12:40:32.895Z,98333.17
2019-05-25T12:45:42.130Z,98347.81
2019-05-25T12:50:47.779Z,98351.66
2019-05-25T12:55:54.328Z,98350.30
2019-05-25T13:01:01.015Z,98353.22
2019-05-25T13:06:07.743Z,98356.84
2019-05-25T13:11:14.373Z,98361.39
2019-05-25T13:16:21.977Z,98354.59
2019-05-25T13:21:28.694Z,98354.58
2019-05-25T13:26:35.450Z,98350.38
2019-05-25T13:31:42.034Z,98351.48
2019-05-25T13:36:48.683Z,98337.00
2019-05-25T13:41:55.327Z,98335.02
2019-05-25T13:47:01.894Z,98339.93
2019-05-25T13:52:08.573Z,98340.16
2019-05-25T13:57:15.144Z,98341.94
2019-05-25T14:02:21.730Z,98339.72
2019-05-25T14:07:28.361Z,98328.38
2019-05-25T14:12:34.975Z,98324.95
2019-05-25T14:17:41.559Z,98324.66
2019-05-25T14:22:48.451Z,98323.80
2019-05-25T14:27:55.153Z,98319.20
2019-05-25T14:33:01.988Z,98328.98
2019-05-25T14:38:08.740Z,98335.02
2019-05-25T14:43:15.437Z,98327.52
2019-05-25T14:48:22.117Z,98318.91
2019-05-25T14:53:28.880Z,98316.00
2019-05-25T14:58:35.733Z,98323.04
2019-05-25T15:03:42.360Z,98325.80
2019-05-25T15:08:49.003Z,98320.47
2019-05-25T15:13:55.663Z,98320.30
2019-05-25T15:19:02.268Z,98316.48
2019-05-25T15:24:09.014Z,98319.13
2019-05-25T15:29:15.484Z,98316.30
2019-05-25T15:34:22.206Z,98310.63
2019-05-25T15:39:28.708Z,98307.44
2019-05-25T15:44:35.284Z,98303.92
2019-05-25T15:49:42.011Z,98303.38
2019-05-25T15:54:48.591Z,98297.12
2019-05-25T15:59:55.172Z,98295.20
2019-05-25T16:05:01.788Z,98294.33
2019-05-25T16:10:11.144Z,98288.16
2019-05-25T16:15:27.832Z,98292.50
2019-05-25T16:20:34.438Z,98293.66
2019-05-25T16:25:41.129Z,98295.17
2019-05-25T16:30:47.717Z,98294.08
2019-05-25T16:35:57.749Z,98292.25
2019-05-25T16:41:02.730Z,98295.10
2019-05-25T16:46:09.359Z,98293.26
2019-05-25T16:51:15.947Z,98301.65
2019-05-25T16:56:22.637Z,98299.64
2019-05-25T17:01:46.924Z,98299.88
2019-05-25T17:06:38.470Z,98305.20
2019-05-25T17:11:45.757Z,98303.95
2019-05-25T17:16:52.296Z,98300.71
2019-05-25T17:21:59.202Z,98297.27
2019-05-25T17:27:06.052Z,98297.41
2019-05-25T17:32:14.237Z,98293.23
2019-05-25T17:37:20.891Z,98300.22
2019-05-25T17:42:27.591Z,98310.25
2019-05-25T17:47:35.805Z,98305.37
2019-05-25T17:52:42.532Z,98313.99
2019-05-25T17:57:49.090Z,98311.79
2019-05-25T18:02:55.937Z,98311.07
2019-05-25T18:08:02.606Z,98318.00
2019-05-25T18:13:09.261Z,98320.59
2019-05-25T18:18:15.911Z,98332.42
2019-05-25T18:23:22.564Z,98331.63
2019-05-25T18:28:29.233Z,98343.70
2019-05-25T18:33:35.713Z,98348.66
2019-05-25T18:38:42.210Z,98348.65
2019-05-25T18:43:48.946Z,98344.58
2019-05-25T18:48:55.511Z,98351.41
2019-05-25T18:54:02.076Z,98354.16
2019-05-25T18:59:08.713Z,98353.30
2019-05-25T19:04:15.268Z,98365.00
2019-05-25T19:09:21.920Z,98370.76
2019-05-25T19:14:28.595Z,98379.14
2019-05-25T19:19:35.247Z,98378.66
2019-05-25T19:24:41.835Z,98385.17
2019-05-25T19:29:48.526Z,98395.34
2019-05-25T19:34:59.783Z,98404.38
2019-05-25T19:40:08.596Z,98409.05
2019-05-25T19:45:12.403Z,98413.26
2019-05-25T19:50:19.932Z,98422.32
2019-05-25T19:55:26.566Z,98431.41
2019-05-25T20:00:33.065Z,98436.69
2019-05-25T20:05:39.630Z,98433.11
2019-05-25T20:10:46.292Z,98436.33
2019-05-25T20:15:52.846Z,98446.53
2019-05-25T20:20:59.948Z,98453.60
2019-05-25T20:26:06.622Z,98454.38
2019-05-25T20:31:13.131Z,98458.84
2019-05-25T20:36:19.770Z,98459.55
2019-05-25T20:41:26.378Z,98473.57
2019-05-25T20:46:33.137Z,98488.32
2019-05-25T20:51:39.844Z,98498.22
2019-05-25T20:56:46.259Z,98501.51
2019-05-25T21:01:52.891Z,98504.78
2019-05-25T21:06:59.322Z,98503.69
2019-05-25T21:12:05.950Z,98513.14
2019-05-25T21:17:12.564Z,98520.73
2019-05-25T21:22:19.235Z,98517.26
2019-05-25T21:27:25.903Z,98515.83
2019-05-25T21:32:32.527Z,98526.77
2019-05-25T21:37:39.103Z,98535.91
2019-05-25T21:42:45.672Z,98543.06
2019-05-25T21:47:55.873Z,98541.28
2019-05-25T21:53:00.436Z,98548.67
2019-05-25T21:58:07.111Z,98546.84
2019-05-25T22:03:13.813Z,98539.71
2019-05-25T22:08:20.432Z,98550.50
2019-05-25T22:13:28.799Z,98549.58
2019-05-25T22:18:35.275Z,98547.61
2019-05-25T22:23:41.819Z,98551.69
2019-05-25T22:28:50.391Z,98550.05
2019-05-25T22:33:59.289Z,98553.45
2019-05-25T22:39:07.130Z,98549.65
2019-05-25T22:44:13.696Z,98553.64
2019-05-25T22:49:20.236Z,98550.83
2019-05-25T22:54:26.972Z,98554.36
2019-05-25T22:59:33.511Z,98556.64
2019-05-25T23:04:40.119Z,98547.23
2019-05-25T23:09:46.698Z,98550.98
2019-05-25T23:14:53.160Z,98545.37
2019-05-25T23:19:59.722Z,98542.96
2019-05-25T23:25:06.728Z,98537.52
2019-05-25T23:30:15.151Z,98532.02
2019-05-25T23:35:21.670Z,98536.09
2019-05-25T23:40:28.411Z,98536.77
2019-05-25T23:45:34.939Z,98528.00
2019-05-25T23:50:41.495Z,98521.42
2019-05-25T23:55:48.862Z,98515.34
